sensor_id;sensor_type;location;lat;lon;timestamp;pressure;altitude;pressure_sealevel;temperature;humidity
68889;BME280;55930;47.412;8.790;2023-04-06T00:01:27;94721.72;;;0.79;76.91
68889;BME280;55930;47.412;8.790;2023-04-06T00:04:47;94723.41;;;0.62;79.09
68889;BME280;55930;47.412;8.790;2023-04-06T00:08:08;94722.94;;;0.71;78.88
68889;BME280;55930;47.412;8.790;2023-04-06T00:11:28;94720.16;;;0.55;79.65
68889;BME280;55930;47.412;8.790;2023-04-06T00:14:49;94714.59;;;0.49;81.16
68889;BME280;55930;47.412;8.790;2023-04-06T00:18:09;94715.03;;;0.44;82.94
68889;BME280;55930;47.412;8.790;2023-04-06T00:21:30;94714.06;;;0.31;81.72
68889;BME280;55930;47.412;8.790;2023-04-06T00:24:53;94718.47;;;0.34;82.41
68889;BME280;55930;47.412;8.790;2023-04-06T00:28:14;94718.16;;;0.32;82.89
68889;BME280;55930;47.412;8.790;2023-04-06T00:31:34;94705.44;;;0.34;80.06
68889;BME280;55930;47.412;8.790;2023-04-06T00:34:55;94716.78;;;0.54;82.01
68889;BME280;55930;47.412;8.790;2023-04-06T00:38:15;94709.91;;;0.33;82.00
68889;BME280;55930;47.412;8.790;2023-04-06T00:41:35;94710.09;;;0.16;83.21
68889;BME280;55930;47.412;8.790;2023-04-06T00:44:59;94702.94;;;0.23;81.27
68889;BME280;55930;47.412;8.790;2023-04-06T00:48:20;94708.41;;;0.32;81.77
68889;BME280;55930;47.412;8.790;2023-04-06T00:51:42;94707.94;;;0.45;79.90
68889;BME280;55930;47.412;8.790;2023-04-06T00:55:03;94696.88;;;0.33;78.63
68889;BME280;55930;47.412;8.790;2023-04-06T00:58:24;94698.41;;;0.31;81.32
68889;BME280;55930;47.412;8.790;2023-04-06T01:01:44;94698.22;;;0.11;80.79
68889;BME280;55930;47.412;8.790;2023-04-06T01:05:05;94696.34;;;0.12;81.34
68889;BME280;55930;47.412;8.790;2023-04-06T01:08:26;94693.72;;;0.15;80.42
68889;BME280;55930;47.412;8.790;2023-04-06T01:11:49;94694.97;;;0.00;81.27
68889;BME280;55930;47.412;8.790;2023-04-06T01:15:12;94691.78;;;-0.18;82.30
68889;BME280;55930;47.412;8.790;2023-04-06T01:18:32;94693.78;;;-0.36;83.65
68889;BME280;55930;47.412;8.790;2023-04-06T01:21:53;94687.00;;;-0.27;83.38
68889;BME280;55930;47.412;8.790;2023-04-06T01:25:13;94680.38;;;-0.39;84.02
68889;BME280;55930;47.412;8.790;2023-04-06T01:28:34;94681.09;;;-0.34;84.24
68889;BME280;55930;47.412;8.790;2023-04-06T01:31:54;94679.94;;;-0.26;83.25
68889;BME280;55930;47.412;8.790;2023-04-06T01:35:18;94671.44;;;-0.34;83.70
68889;BME280;55930;47.412;8.790;2023-04-06T01:38:38;94685.19;;;-0.33;83.25
68889;BME280;55930;47.412;8.790;2023-04-06T01:41:58;94683.03;;;-0.46;83.64
68889;BME280;55930;47.412;8.790;2023-04-06T01:45:19;94678.22;;;-0.47;84.71
68889;BME280;55930;47.412;8.790;2023-04-06T01:48:39;94677.19;;;-0.57;85.24
68889;BME280;55930;47.412;8.790;2023-04-06T01:52:00;94673.09;;;-0.58;84.92
68889;BME280;55930;47.412;8.790;2023-04-06T01:55:20;94670.50;;;-0.58;85.57
68889;BME280;55930;47.412;8.790;2023-04-06T01:58:43;94668.31;;;-0.66;86.20
68889;BME280;55930;47.412;8.790;2023-04-06T02:02:04;94668.72;;;-0.71;86.16
68889;BME280;55930;47.412;8.790;2023-04-06T02:05:25;94666.38;;;-0.55;87.17
68889;BME280;55930;47.412;8.790;2023-04-06T02:08:45;94670.16;;;-0.63;87.05
68889;BME280;55930;47.412;8.790;2023-04-06T02:12:06;94666.09;;;-0.71;86.55
68889;BME280;55930;47.412;8.790;2023-04-06T02:15:26;94673.22;;;-0.72;86.32
68889;BME280;55930;47.412;8.790;2023-04-06T02:18:49;94672.84;;;-0.74;85.60
68889;BME280;55930;47.412;8.790;2023-04-06T02:22:10;94672.81;;;-0.70;85.04
68889;BME280;55930;47.412;8.790;2023-04-06T02:25:31;94667.63;;;-0.74;85.71
68889;BME280;55930;47.412;8.790;2023-04-06T02:28:52;94664.25;;;-0.71;85.53
68889;BME280;55930;47.412;8.790;2023-04-06T02:32:13;94669.22;;;-0.91;85.24
68889;BME280;55930;47.412;8.790;2023-04-06T02:35:39;94669.06;;;-0.69;85.24
68889;BME280;55930;47.412;8.790;2023-04-06T02:39:00;94665.44;;;-0.83;85.28
68889;BME280;55930;47.412;8.790;2023-04-06T02:42:23;94664.66;;;-0.76;85.14
68889;BME280;55930;47.412;8.790;2023-04-06T02:45:43;94670.00;;;-0.97;85.61
68889;BME280;55930;47.412;8.790;2023-04-06T02:49:06;94665.03;;;-0.78;85.15
68889;BME280;55930;47.412;8.790;2023-04-06T02:52:27;94664.44;;;-0.99;85.53
68889;BME280;55930;47.412;8.790;2023-04-06T02:55:50;94669.66;;;-0.99;86.21
68889;BME280;55930;47.412;8.790;2023-04-06T02:59:10;94670.06;;;-1.11;86.59
68889;BME280;55930;47.412;8.790;2023-04-06T03:02:31;94664.41;;;-0.96;86.57
68889;BME280;55930;47.412;8.790;2023-04-06T03:05:51;94655.19;;;-1.04;86.74
68889;BME280;55930;47.412;8.790;2023-04-06T03:09:14;94659.19;;;-0.96;86.46
68889;BME280;55930;47.412;8.790;2023-04-06T03:12:34;94650.69;;;-1.03;86.83
68889;BME280;55930;47.412;8.790;2023-04-06T03:15:55;94657.44;;;-1.09;89.13
68889;BME280;55930;47.412;8.790;2023-04-06T03:19:15;94653.41;;;-1.25;90.28
68889;BME280;55930;47.412;8.790;2023-04-06T03:22:35;94653.75;;;-1.12;89.59
68889;BME280;55930;47.412;8.790;2023-04-06T03:25:56;94651.84;;;-1.04;88.68
68889;BME280;55930;47.412;8.790;2023-04-06T03:29:16;94655.88;;;-1.00;88.61
68889;BME280;55930;47.412;8.790;2023-04-06T03:32:39;94662.69;;;-1.20;88.75
68889;BME280;55930;47.412;8.790;2023-04-06T03:35:59;94659.69;;;-1.15;89.24
68889;BME280;55930;47.412;8.790;2023-04-06T03:39:20;94657.88;;;-1.22;89.10
68889;BME280;55930;47.412;8.790;2023-04-06T03:42:40;94658.63;;;-1.21;88.48
68889;BME280;55930;47.412;8.790;2023-04-06T03:46:01;94663.47;;;-1.27;89.38
68889;BME280;55930;47.412;8.790;2023-04-06T03:49:21;94660.53;;;-1.32;89.97
68889;BME280;55930;47.412;8.790;2023-04-06T03:52:41;94663.94;;;-1.46;91.55
68889;BME280;55930;47.412;8.790;2023-04-06T03:56:02;94667.28;;;-1.49;91.01
68889;BME280;55930;47.412;8.790;2023-04-06T03:59:22;94675.41;;;-1.40;90.90
68889;BME280;55930;47.412;8.790;2023-04-06T04:02:43;94670.97;;;-1.39;89.40
68889;BME280;55930;47.412;8.790;2023-04-06T04:06:03;94671.72;;;-1.42;89.74
68889;BME280;55930;47.412;8.790;2023-04-06T04:09:23;94663.16;;;-1.43;89.26
68889;BME280;55930;47.412;8.790;2023-04-06T04:12:44;94668.38;;;-1.46;89.25
68889;BME280;55930;47.412;8.790;2023-04-06T04:16:05;94671.41;;;-1.59;89.85
68889;BME280;55930;47.412;8.790;2023-04-06T04:19:25;94668.47;;;-1.68;91.30
68889;BME280;55930;47.412;8.790;2023-04-06T04:22:45;94662.88;;;-1.63;90.55
68889;BME280;55930;47.412;8.790;2023-04-06T04:26:06;94668.44;;;-1.61;90.14
68889;BME280;55930;47.412;8.790;2023-04-06T04:29:26;94672.56;;;-1.70;90.23
68889;BME280;55930;47.412;8.790;2023-04-06T04:32:47;94672.91;;;-1.65;90.21
68889;BME280;55930;47.412;8.790;2023-04-06T04:36:08;94674.41;;;-1.71;90.25
68889;BME280;55930;47.412;8.790;2023-04-06T04:39:30;94676.59;;;-1.59;89.78
68889;BME280;55930;47.412;8.790;2023-04-06T04:42:51;94679.22;;;-1.62;88.36
68889;BME280;55930;47.412;8.790;2023-04-06T04:46:11;94678.44;;;-1.59;89.06
68889;BME280;55930;47.412;8.790;2023-04-06T04:49:31;94680.34;;;-1.63;88.35
68889;BME280;55930;47.412;8.790;2023-04-06T04:52:52;94681.78;;;-1.51;87.79
68889;BME280;55930;47.412;8.790;2023-04-06T04:56:12;94685.50;;;-1.52;88.10
68889;BME280;55930;47.412;8.790;2023-04-06T04:59:34;94682.91;;;-1.60;88.09
68889;BME280;55930;47.412;8.790;2023-04-06T05:02:55;94688.09;;;-1.45;87.71
68889;BME280;55930;47.412;8.790;2023-04-06T05:06:15;94691.81;;;-1.46;90.12
68889;BME280;55930;47.412;8.790;2023-04-06T05:09:36;94691.75;;;-1.29;88.30
68889;BME280;55930;47.412;8.790;2023-04-06T05:12:56;94683.19;;;-1.33;89.21
68889;BME280;55930;47.412;8.790;2023-04-06T05:16:17;94689.84;;;-1.21;90.06
68889;BME280;55930;47.412;8.790;2023-04-06T05:19:37;94694.31;;;-1.22;88.88
68889;BME280;55930;47.412;8.790;2023-04-06T05:22:58;94697.63;;;-1.18;88.73
68889;BME280;55930;47.412;8.790;2023-04-06T05:26:18;94698.00;;;-1.19;88.92
68889;BME280;55930;47.412;8.790;2023-04-06T05:29:39;94704.31;;;-1.13;88.31
68889;BME280;55930;47.412;8.790;2023-04-06T05:32:59;94693.41;;;-0.90;87.31
68889;BME280;55930;47.412;8.790;2023-04-06T05:36:24;94704.84;;;-0.73;86.77
68889;BME280;55930;47.412;8.790;2023-04-06T05:39:44;94713.00;;;-0.71;86.70
68889;BME280;55930;47.412;8.790;2023-04-06T05:43:08;94718.88;;;-0.60;87.19
68889;BME280;55930;47.412;8.790;2023-04-06T05:46:28;94713.94;;;-0.44;85.48
68889;BME280;55930;47.412;8.790;2023-04-06T05:49:48;94724.03;;;-0.50;84.69
68889;BME280;55930;47.412;8.790;2023-04-06T05:53:09;94720.16;;;-0.31;84.61
68889;BME280;55930;47.412;8.790;2023-04-06T05:56:29;94718.59;;;-0.21;83.98
68889;BME280;55930;47.412;8.790;2023-04-06T05:59:51;94719.03;;;-0.30;84.26
68889;BME280;55930;47.412;8.790;2023-04-06T06:03:12;94714.63;;;0.08;82.63
68889;BME280;55930;47.412;8.790;2023-04-06T06:06:33;94717.78;;;0.30;81.37
68889;BME280;55930;47.412;8.790;2023-04-06T06:09:57;94721.06;;;0.71;80.11
68889;BME280;55930;47.412;8.790;2023-04-06T06:13:18;94726.72;;;1.27;75.67
68889;BME280;55930;47.412;8.790;2023-04-06T06:16:41;94721.69;;;1.67;72.25
68889;BME280;55930;47.412;8.790;2023-04-06T06:20:01;94724.94;;;1.98;70.69
68889;BME280;55930;47.412;8.790;2023-04-06T06:23:21;94725.22;;;2.26;69.05
68889;BME280;55930;47.412;8.790;2023-04-06T06:26:42;94730.06;;;3.27;66.63
68889;BME280;55930;47.412;8.790;2023-04-06T06:30:03;94719.97;;;6.10;56.49
68889;BME280;55930;47.412;8.790;2023-04-06T06:33:24;94716.88;;;4.28;65.31
68889;BME280;55930;47.412;8.790;2023-04-06T06:36:46;94730.38;;;7.76;57.65
68889;BME280;55930;47.412;8.790;2023-04-06T06:40:07;94724.75;;;11.23;41.47
68889;BME280;55930;47.412;8.790;2023-04-06T06:43:27;94723.09;;;10.96;42.80
68889;BME280;55930;47.412;8.790;2023-04-06T06:46:48;94731.94;;;6.80;52.17
68889;BME280;55930;47.412;8.790;2023-04-06T06:50:08;94729.56;;;6.95;52.48
68889;BME280;55930;47.412;8.790;2023-04-06T06:53:29;94734.84;;;8.37;46.75
68889;BME280;55930;47.412;8.790;2023-04-06T06:56:49;94735.31;;;7.03;49.56
68889;BME280;55930;47.412;8.790;2023-04-06T07:00:10;94732.91;;;6.18;50.87
68889;BME280;55930;47.412;8.790;2023-04-06T07:03:33;94740.91;;;7.57;50.31
68889;BME280;55930;47.412;8.790;2023-04-06T07:06:53;94745.41;;;7.48;47.86
68889;BME280;55930;47.412;8.790;2023-04-06T07:10:16;94738.25;;;7.97;46.58
68889;BME280;55930;47.412;8.790;2023-04-06T07:13:36;94741.56;;;10.52;40.31
68889;BME280;55930;47.412;8.790;2023-04-06T07:16:57;94739.72;;;10.19;40.86
68889;BME280;55930;47.412;8.790;2023-04-06T07:20:18;94746.00;;;11.52;39.68
68889;BME280;55930;47.412;8.790;2023-04-06T07:23:38;94745.72;;;11.65;38.46
68889;BME280;55930;47.412;8.790;2023-04-06T07:26:59;94751.75;;;11.06;38.71
68889;BME280;55930;47.412;8.790;2023-04-06T07:30:22;94755.38;;;9.06;44.24
68889;BME280;55930;47.412;8.790;2023-04-06T07:33:45;94754.66;;;8.60;44.64
68889;BME280;55930;47.412;8.790;2023-04-06T07:37:05;94748.06;;;9.01;44.12
68889;BME280;55930;47.412;8.790;2023-04-06T07:40:26;94758.78;;;10.95;40.56
68889;BME280;55930;47.412;8.790;2023-04-06T07:43:47;94759.53;;;11.83;37.81
68889;BME280;55930;47.412;8.790;2023-04-06T07:47:07;94755.50;;;11.44;37.91
68889;BME280;55930;47.412;8.790;2023-04-06T07:50:28;94765.59;;;11.40;39.05
68889;BME280;55930;47.412;8.790;2023-04-06T07:53:52;94764.19;;;12.58;37.74
68889;BME280;55930;47.412;8.790;2023-04-06T07:57:12;94756.81;;;14.03;35.67
68889;BME280;55930;47.412;8.790;2023-04-06T08:00:33;94762.59;;;12.11;36.70
68889;BME280;55930;47.412;8.790;2023-04-06T08:03:53;94763.00;;;13.06;35.66
68889;BME280;55930;47.412;8.790;2023-04-06T08:07:15;94765.41;;;11.43;38.97
68889;BME280;55930;47.412;8.790;2023-04-06T08:10:36;94763.19;;;11.12;38.63
68889;BME280;55930;47.412;8.790;2023-04-06T08:13:56;94764.41;;;10.25;40.19
68889;BME280;55930;47.412;8.790;2023-04-06T08:17:17;94761.75;;;11.85;37.08
68889;BME280;55930;47.412;8.790;2023-04-06T08:20:37;94755.59;;;14.46;34.66
68889;BME280;55930;47.412;8.790;2023-04-06T08:23:58;94754.59;;;15.09;33.08
68889;BME280;55930;47.412;8.790;2023-04-06T08:27:18;94751.19;;;14.91;33.10
68889;BME280;55930;47.412;8.790;2023-04-06T08:30:42;94757.59;;;15.50;31.41
68889;BME280;55930;47.412;8.790;2023-04-06T08:34:04;94754.97;;;15.72;31.49
68889;BME280;55930;47.412;8.790;2023-04-06T08:37:25;94752.28;;;15.72;31.44
68889;BME280;55930;47.412;8.790;2023-04-06T08:40:46;94755.69;;;16.86;30.89
68889;BME280;55930;47.412;8.790;2023-04-06T08:44:08;94756.06;;;17.12;31.08
68889;BME280;55930;47.412;8.790;2023-04-06T08:47:28;94754.66;;;16.95;28.50
68889;BME280;55930;47.412;8.790;2023-04-06T08:50:49;94754.94;;;15.83;30.23
68889;BME280;55930;47.412;8.790;2023-04-06T08:54:10;94755.59;;;15.00;29.94
68889;BME280;55930;47.412;8.790;2023-04-06T08:57:30;94751.56;;;15.88;29.74
68889;BME280;55930;47.412;8.790;2023-04-06T09:00:52;94754.81;;;18.14;27.37
68889;BME280;55930;47.412;8.790;2023-04-06T09:04:12;94746.56;;;18.55;27.80
68889;BME280;55930;47.412;8.790;2023-04-06T09:07:33;94754.69;;;15.81;29.74
68889;BME280;55930;47.412;8.790;2023-04-06T09:10:56;94748.13;;;14.50;30.75
68889;BME280;55930;47.412;8.790;2023-04-06T09:14:16;94747.19;;;13.79;31.25
68889;BME280;55930;47.412;8.790;2023-04-06T09:17:37;94741.03;;;13.68;33.24
68889;BME280;55930;47.412;8.790;2023-04-06T09:21:05;94744.63;;;17.47;28.63
68889;BME280;55930;47.412;8.790;2023-04-06T09:24:26;94732.91;;;18.34;25.26
68889;BME280;55930;47.412;8.790;2023-04-06T09:27:46;94738.13;;;17.97;27.40
68889;BME280;55930;47.412;8.790;2023-04-06T09:31:07;94742.28;;;18.47;26.67
68889;BME280;55930;47.412;8.790;2023-04-06T09:34:29;94743.78;;;17.58;26.08
68889;BME280;55930;47.412;8.790;2023-04-06T09:37:51;94737.88;;;18.25;26.57
68889;BME280;55930;47.412;8.790;2023-04-06T09:41:30;94734.41;;;20.65;24.30
68889;BME280;55930;47.412;8.790;2023-04-06T09:44:51;94732.81;;;20.69;23.26
68889;BME280;55930;47.412;8.790;2023-04-06T09:48:11;94732.47;;;18.92;24.34
68889;BME280;55930;47.412;8.790;2023-04-06T09:54:59;94727.19;;;19.05;24.63
68889;BME280;55930;47.412;8.790;2023-04-06T09:58:22;94728.75;;;18.58;25.60
68889;BME280;55930;47.412;8.790;2023-04-06T10:01:48;94727.63;;;21.94;22.23
68889;BME280;55930;47.412;8.790;2023-04-06T10:05:37;94728.88;;;21.30;22.48
68889;BME280;55930;47.412;8.790;2023-04-06T10:09:04;94723.72;;;21.19;21.24
68889;BME280;55930;47.412;8.790;2023-04-06T10:12:27;94729.41;;;22.12;21.24
68889;BME280;55930;47.412;8.790;2023-04-06T10:15:48;94730.50;;;22.45;21.08
68889;BME280;55930;47.412;8.790;2023-04-06T10:19:22;94732.69;;;22.46;21.95
68889;BME280;55930;47.412;8.790;2023-04-06T10:23:11;94727.13;;;22.80;22.74
68889;BME280;55930;47.412;8.790;2023-04-06T10:26:36;94726.13;;;22.70;21.75
68889;BME280;55930;47.412;8.790;2023-04-06T10:30:04;94725.78;;;21.26;23.03
68889;BME280;55930;47.412;8.790;2023-04-06T10:33:26;94728.88;;;20.31;23.85
68889;BME280;55930;47.412;8.790;2023-04-06T10:36:47;94722.03;;;18.89;25.03
68889;BME280;55930;47.412;8.790;2023-04-06T10:40:24;94721.75;;;19.75;24.38
68889;BME280;55930;47.412;8.790;2023-04-06T10:43:55;94720.06;;;19.59;26.46
68889;BME280;55930;47.412;8.790;2023-04-06T10:47:17;94716.38;;;18.49;24.67
68889;BME280;55930;47.412;8.790;2023-04-06T10:50:39;94727.28;;;18.32;24.68
68889;BME280;55930;47.412;8.790;2023-04-06T10:54:01;94717.22;;;18.39;25.77
68889;BME280;55930;47.412;8.790;2023-04-06T10:57:29;94719.47;;;18.96;24.73
68889;BME280;55930;47.412;8.790;2023-04-06T11:00:52;94719.72;;;21.33;21.87
68889;BME280;55930;47.412;8.790;2023-04-06T11:04:17;94722.38;;;19.81;23.63
68889;BME280;55930;47.412;8.790;2023-04-06T11:07:39;94727.72;;;22.94;20.66
68889;BME280;55930;47.412;8.790;2023-04-06T11:11:05;94720.72;;;22.34;20.62
68889;BME280;55930;47.412;8.790;2023-04-06T11:14:25;94721.03;;;21.40;21.43
68889;BME280;55930;47.412;8.790;2023-04-06T11:17:46;94711.84;;;24.25;18.79
68889;BME280;55930;47.412;8.790;2023-04-06T11:21:07;94702.41;;;25.86;19.28
68889;BME280;55930;47.412;8.790;2023-04-06T11:24:27;94699.25;;;25.73;18.35
68889;BME280;55930;47.412;8.790;2023-04-06T11:27:48;94700.94;;;25.68;17.40
68889;BME280;55930;47.412;8.790;2023-04-06T11:31:10;94697.28;;;22.01;20.05
68889;BME280;55930;47.412;8.790;2023-04-06T11:34:39;94697.53;;;22.46;18.77
68889;BME280;55930;47.412;8.790;2023-04-06T11:38:03;94688.97;;;24.51;17.16
68889;BME280;55930;47.412;8.790;2023-04-06T11:41:24;94686.91;;;25.14;18.15
68889;BME280;55930;47.412;8.790;2023-04-06T11:44:46;94678.16;;;23.14;18.95
68889;BME280;55930;47.412;8.790;2023-04-06T11:48:19;94682.50;;;25.84;17.38
68889;BME280;55930;47.412;8.790;2023-04-06T11:51:43;94676.50;;;25.36;17.76
68889;BME280;55930;47.412;8.790;2023-04-06T11:55:17;94674.41;;;24.09;18.37
68889;BME280;55930;47.412;8.790;2023-04-06T11:58:37;94672.09;;;23.52;18.77
68889;BME280;55930;47.412;8.790;2023-04-06T12:02:04;94672.78;;;23.30;19.36
68889;BME280;55930;47.412;8.790;2023-04-06T12:05:24;94672.72;;;26.23;18.25
68889;BME280;55930;47.412;8.790;2023-04-06T12:08:45;94666.22;;;26.01;16.08
68889;BME280;55930;47.412;8.790;2023-04-06T12:12:06;94664.22;;;24.47;16.85
68889;BME280;55930;47.412;8.790;2023-04-06T12:15:26;94653.47;;;23.41;19.38
68889;BME280;55930;47.412;8.790;2023-04-06T12:18:47;94660.88;;;19.40;21.90
68889;BME280;55930;47.412;8.790;2023-04-06T12:22:07;94656.53;;;19.69;21.53
68889;BME280;55930;47.412;8.790;2023-04-06T12:25:28;94655.97;;;22.65;19.02
68889;BME280;55930;47.412;8.790;2023-04-06T12:28:48;94655.25;;;23.23;18.62
68889;BME280;55930;47.412;8.790;2023-04-06T12:32:08;94652.69;;;24.31;18.01
68889;BME280;55930;47.412;8.790;2023-04-06T12:35:33;94648.06;;;23.79;17.44
68889;BME280;55930;47.412;8.790;2023-04-06T12:38:53;94645.66;;;21.42;18.37
68889;BME280;55930;47.412;8.790;2023-04-06T12:42:14;94654.28;;;19.99;23.11
68889;BME280;55930;47.412;8.790;2023-04-06T12:45:34;94651.13;;;23.37;19.59
68889;BME280;55930;47.412;8.790;2023-04-06T12:48:55;94648.91;;;21.90;19.47
68889;BME280;55930;47.412;8.790;2023-04-06T12:52:16;94646.38;;;20.67;20.37
68889;BME280;55930;47.412;8.790;2023-04-06T12:55:37;94646.63;;;23.55;19.80
68889;BME280;55930;47.412;8.790;2023-04-06T12:58:57;94643.34;;;23.18;19.28
68889;BME280;55930;47.412;8.790;2023-04-06T13:02:18;94646.44;;;21.71;19.33
68889;BME280;55930;47.412;8.790;2023-04-06T13:05:44;94651.28;;;22.22;20.09
68889;BME280;55930;47.412;8.790;2023-04-06T13:09:05;94648.88;;;21.41;20.12
68889;BME280;55930;47.412;8.790;2023-04-06T13:12:28;94642.63;;;19.52;21.24
68889;BME280;55930;47.412;8.790;2023-04-06T13:15:48;94635.19;;;17.94;22.25
68889;BME280;55930;47.412;8.790;2023-04-06T13:19:11;94636.69;;;18.33;23.94
68889;BME280;55930;47.412;8.790;2023-04-06T13:22:31;94639.34;;;16.70;23.98
68889;BME280;55930;47.412;8.790;2023-04-06T13:25:59;94641.63;;;17.56;24.79
68889;BME280;55930;47.412;8.790;2023-04-06T13:29:20;94624.69;;;18.15;22.95
68889;BME280;55930;47.412;8.790;2023-04-06T13:32:40;94628.44;;;17.58;23.86
68889;BME280;55930;47.412;8.790;2023-04-06T13:36:01;94624.84;;;17.80;23.62
68889;BME280;55930;47.412;8.790;2023-04-06T13:39:22;94621.22;;;19.27;22.20
68889;BME280;55930;47.412;8.790;2023-04-06T13:42:42;94625.97;;;18.89;22.72
68889;BME280;55930;47.412;8.790;2023-04-06T13:46:08;94619.50;;;17.98;23.68
68889;BME280;55930;47.412;8.790;2023-04-06T13:49:31;94608.75;;;18.23;22.68
68889;BME280;55930;47.412;8.790;2023-04-06T13:52:51;94612.66;;;19.29;21.37
68889;BME280;55930;47.412;8.790;2023-04-06T13:56:11;94611.91;;;21.28;19.20
68889;BME280;55930;47.412;8.790;2023-04-06T13:59:36;94603.56;;;17.63;22.57
68889;BME280;55930;47.412;8.790;2023-04-06T14:02:56;94598.31;;;21.41;19.29
68889;BME280;55930;47.412;8.790;2023-04-06T14:06:17;94601.81;;;22.06;18.37
68889;BME280;55930;47.412;8.790;2023-04-06T14:09:37;94587.16;;;22.81;17.79
68889;BME280;55930;47.412;8.790;2023-04-06T14:12:58;94592.03;;;22.31;17.77
68889;BME280;55930;47.412;8.790;2023-04-06T14:16:19;94594.66;;;21.31;20.40
68889;BME280;55930;47.412;8.790;2023-04-06T14:19:41;94593.94;;;20.29;20.83
68889;BME280;55930;47.412;8.790;2023-04-06T14:23:03;94593.69;;;22.93;20.26
68889;BME280;55930;47.412;8.790;2023-04-06T14:26:24;94588.91;;;24.23;17.94
68889;BME280;55930;47.412;8.790;2023-04-06T14:29:44;94588.53;;;24.34;17.10
68889;BME280;55930;47.412;8.790;2023-04-06T14:33:05;94587.59;;;22.05;20.08
68889;BME280;55930;47.412;8.790;2023-04-06T14:36:25;94592.69;;;20.56;18.80
68889;BME280;55930;47.412;8.790;2023-04-06T14:39:47;94587.66;;;20.00;19.49
68889;BME280;55930;47.412;8.790;2023-04-06T14:43:08;94600.38;;;20.25;20.65
68889;BME280;55930;47.412;8.790;2023-04-06T14:46:28;94597.41;;;18.30;21.11
68889;BME280;55930;47.412;8.790;2023-04-06T14:49:50;94603.94;;;18.91;22.87
68889;BME280;55930;47.412;8.790;2023-04-06T14:53:11;94600.91;;;17.82;22.82
68889;BME280;55930;47.412;8.790;2023-04-06T14:56:31;94605.44;;;18.73;22.28
68889;BME280;55930;47.412;8.790;2023-04-06T14:59:53;94595.69;;;18.51;22.88
68889;BME280;55930;47.412;8.790;2023-04-06T15:03:14;94592.72;;;19.64;21.84
68889;BME280;55930;47.412;8.790;2023-04-06T15:06:35;94591.97;;;20.29;20.79
68889;BME280;55930;47.412;8.790;2023-04-06T15:09:55;94592.19;;;17.76;22.87
68889;BME280;55930;47.412;8.790;2023-04-06T15:13:16;94601.16;;;16.59;25.59
68889;BME280;55930;47.412;8.790;2023-04-06T15:16:36;94604.97;;;17.10;25.20
68889;BME280;55930;47.412;8.790;2023-04-06T15:19:57;94601.28;;;15.79;24.60
68889;BME280;55930;47.412;8.790;2023-04-06T15:23:18;94604.78;;;16.20;26.48
68889;BME280;55930;47.412;8.790;2023-04-06T15:26:40;94601.81;;;14.77;26.49
68889;BME280;55930;47.412;8.790;2023-04-06T15:30:01;94602.13;;;13.55;28.57
68889;BME280;55930;47.412;8.790;2023-04-06T15:33:21;94606.84;;;14.47;26.86
68889;BME280;55930;47.412;8.790;2023-04-06T15:36:42;94600.13;;;13.50;27.97
68889;BME280;55930;47.412;8.790;2023-04-06T15:40:04;94599.25;;;13.27;27.93
68889;BME280;55930;47.412;8.790;2023-04-06T15:43:25;94601.75;;;13.36;27.34
68889;BME280;55930;47.412;8.790;2023-04-06T15:46:45;94602.38;;;13.25;28.93
68889;BME280;55930;47.412;8.790;2023-04-06T15:50:08;94613.72;;;12.89;29.36
68889;BME280;55930;47.412;8.790;2023-04-06T15:53:29;94604.38;;;13.30;31.55
68889;BME280;55930;47.412;8.790;2023-04-06T15:56:49;94610.16;;;12.97;32.69
68889;BME280;55930;47.412;8.790;2023-04-06T16:00:10;94603.53;;;13.13;31.11
68889;BME280;55930;47.412;8.790;2023-04-06T16:03:31;94609.59;;;12.88;32.38
68889;BME280;55930;47.412;8.790;2023-04-06T16:06:51;94605.16;;;12.79;33.98
68889;BME280;55930;47.412;8.790;2023-04-06T16:10:11;94605.66;;;12.52;33.65
68889;BME280;55930;47.412;8.790;2023-04-06T16:13:32;94611.59;;;12.41;31.51
68889;BME280;55930;47.412;8.790;2023-04-06T16:16:52;94617.72;;;12.07;32.58
68889;BME280;55930;47.412;8.790;2023-04-06T16:20:14;94615.41;;;11.94;33.50
68889;BME280;55930;47.412;8.790;2023-04-06T16:23:36;94610.53;;;11.72;33.67
68889;BME280;55930;47.412;8.790;2023-04-06T16:26:57;94615.50;;;11.65;35.02
68889;BME280;55930;47.412;8.790;2023-04-06T16:30:20;94615.88;;;11.58;35.50
68889;BME280;55930;47.412;8.790;2023-04-06T16:33:40;94621.56;;;11.65;36.29
68889;BME280;55930;47.412;8.790;2023-04-06T16:37:01;94618.84;;;11.45;36.71
68889;BME280;55930;47.412;8.790;2023-04-06T16:40:21;94613.22;;;11.58;36.39
68889;BME280;55930;47.412;8.790;2023-04-06T16:43:42;94627.13;;;11.32;37.20
68889;BME280;55930;47.412;8.790;2023-04-06T16:47:02;94634.63;;;11.34;38.19
68889;BME280;55930;47.412;8.790;2023-04-06T16:50:23;94630.84;;;10.91;37.72
68889;BME280;55930;47.412;8.790;2023-04-06T16:53:44;94622.31;;;10.72;39.85
68889;BME280;55930;47.412;8.790;2023-04-06T16:57:06;94624.44;;;10.68;39.00
68889;BME280;55930;47.412;8.790;2023-04-06T17:00:27;94631.75;;;10.88;39.95
68889;BME280;55930;47.412;8.790;2023-04-06T17:03:49;94635.13;;;10.73;40.68
68889;BME280;55930;47.412;8.790;2023-04-06T17:07:10;94632.44;;;10.29;40.18
68889;BME280;55930;47.412;8.790;2023-04-06T17:10:31;94632.97;;;10.33;42.24
68889;BME280;55930;47.412;8.790;2023-04-06T17:13:51;94623.94;;;10.40;41.18
68889;BME280;55930;47.412;8.790;2023-04-06T17:17:12;94619.78;;;10.24;42.96
68889;BME280;55930;47.412;8.790;2023-04-06T17:20:32;94619.56;;;10.13;40.79
68889;BME280;55930;47.412;8.790;2023-04-06T17:23:54;94617.91;;;10.16;41.45
68889;BME280;55930;47.412;8.790;2023-04-06T17:27:15;94621.25;;;10.02;41.56
68889;BME280;55930;47.412;8.790;2023-04-06T17:30:35;94620.81;;;9.79;43.18
68889;BME280;55930;47.412;8.790;2023-04-06T17:33:55;94625.38;;;9.79;47.54
68889;BME280;55930;47.412;8.790;2023-04-06T17:37:16;94622.25;;;9.66;43.77
68889;BME280;55930;47.412;8.790;2023-04-06T17:40:36;94624.94;;;9.56;46.43
68889;BME280;55930;47.412;8.790;2023-04-06T17:43:57;94620.59;;;9.35;51.70
68889;BME280;55930;47.412;8.790;2023-04-06T17:47:20;94621.88;;;9.16;55.88
68889;BME280;55930;47.412;8.790;2023-04-06T17:50:41;94631.47;;;8.95;54.89
68889;BME280;55930;47.412;8.790;2023-04-06T17:54:01;94627.44;;;8.76;53.10